• Join FlightAware (Why Join?)
  • Login
  • US Flag 
11:14AM EDT


 

Airport Tracker/Info


-or-


 

Live Flight TrackerFlight Track Log ✈ ASQ5270 ✈ 29-Apr-2013 ✈ KBQK - KATL

Flight Track Log - Related Links

Times and Time Zones

All times are in EDT time to prevent confusion due to time zone crossing. See the ASQ5270 flight status page for this flight to view local times or setup timezone preferences in your user account.

Time Position Orientation Groundspeed Altitude Reporting Facility
EDT Latitude Longitude Course Direction KTS MPH feet Rate Location/Type
07:31AM 31.3042 -81.4411 316° Northwest 359 413 1,800  Level Jacksonville Center
07:32AM 31.6173 -81.8411 316° Northwest  Level FlightAware Approximate
07:32AM 31.3592 -81.4961 320° Northwest 239 275 4,100  Level Jacksonville Center
07:33AM 31.4142 -81.5561 317° Northwest 263 303 7,000 2,700 Climbing Jacksonville Center
07:34AM 31.4647 -81.6139 316° Northwest 280 322 9,500 2,040 Climbing Jacksonville Center
07:35AM 31.5322 -81.6861 318° Northwest 286 329 11,100 1,380 Climbing Jacksonville Center
07:36AM 31.5936 -81.7536 317° Northwest 328 377 12,300 1,320 Climbing Jacksonville Center
07:37AM 31.6736 -81.8428 317° Northwest 345 397 13,800 1,440 Climbing Jacksonville Center
07:38AM 31.7517 -81.9275 317° Northwest 364 419 15,200 1,320 Climbing Jacksonville Center
07:39AM 31.8211 -82.0050 317° Northwest 372 428 16,500 1,260 Climbing Jacksonville Center
07:40AM 31.9094 -82.1019 317° Northwest 386 444 17,800 1,020 Climbing Jacksonville Center
07:41AM 31.9786 -82.1822 315° West 386 444 18,600 900 Climbing Jacksonville Center
07:43AM 32.1336 -82.3514 317° Northwest 418 481 20,400 960 Climbing Atlanta Center
07:44AM 32.2183 -82.4406 318° Northwest 412 474 21,400 780 Climbing Atlanta Center
07:45AM 32.3031 -82.5397 315° West 394 453 22,000 300 Climbing Atlanta Center
07:46AM 32.3708 -82.6197 315° West 401 461 22,000  Level Atlanta Center
07:47AM 32.4681 -82.7267 317° Northwest 421 484 22,000  Level Atlanta Center
07:48AM 32.5567 -82.8264 317° Northwest 413 475 22,000  Level Atlanta Center
07:49AM 32.6267 -82.9289 309° West 401 461 22,000  Level Atlanta Center
07:50AM 32.6942 -83.0269 309° West 413 475 22,000  Level Atlanta Center
07:51AM 32.7661 -83.1347 308° West 413 475 22,000 -300 Level Atlanta Center
07:52AM 32.8419 -83.2500 308° West 413 475 21,400 -960 Descending Atlanta Center
07:53AM 32.9094 -83.3486 309° West 422 486 20,100 -1,380 Descending Atlanta Center
07:54AM 32.9747 -83.4444 309° West 404 465 18,700 -1,380 Descending Atlanta Center
07:55AM 33.0375 -83.5383 309° West 384 442 17,400 -1,440 Descending Atlanta Center
07:56AM 33.1028 -83.6372 308° West 358 412 15,900 -1,560 Descending Atlanta Center
07:56AM 33.1333 -83.6833 308° West 339 390 15,100 -1,200 Descending Atlanta TRACON
07:57AM 33.1833 -83.7667 306° West 351 404 14,200 -720 Descending Atlanta TRACON
07:58AM 33.2500 -83.8500 314° West 350 403 13,800 -720 Descending Atlanta TRACON
07:59AM 33.2808 -83.9072 303° West 347 399 13,100 -1,080 Descending Atlanta Center
08:00AM 33.3372 -83.9917 309° West 342 394 12,100 -600 Descending Atlanta Center
08:01AM 33.3872 -84.0686 308° West 342 394 12,000 -60 Descending Atlanta Center
08:02AM 33.4436 -84.1533 309° West 331 381 12,000  Level Atlanta Center
08:02AM 33.4667 -84.2000 301° West 330 380 12,000  Level Atlanta TRACON
08:03AM 33.5167 -84.2667 312° West 288 331 12,000 -480 Level Atlanta TRACON
08:04AM 33.5500 -84.3667 292° West 278 320 11,100 -1,500 Descending Atlanta TRACON
08:05AM 33.5500 -84.4500 270° West 270 311 9,100 -2,220 Descending Atlanta TRACON
08:06AM 33.5500 -84.5333 270° West 257 296 6,700 -2,220 Descending Atlanta TRACON
08:07AM 33.5500 -84.6167 270° West 253 291 4,500 -1,860 Descending Atlanta TRACON
08:08AM 33.5500 -84.7000 270° West 245 282 3,000 -780 Descending Atlanta TRACON
08:09AM 33.5833 -84.7500 309° West 242 278 3,000  Level Atlanta TRACON
08:10AM 33.6333 -84.7167 29° Northeast 199 229 3,000  Level Atlanta TRACON
08:11AM 33.6167 -84.6500 107° East 206 237 3,000  Level Atlanta TRACON
08:12AM 33.6167 -84.5833 90° East 208 239 3,000 -420 Level Atlanta TRACON
08:13AM 33.6167 -84.5167 90° East 176 203 2,200 -840 Descending Atlanta TRACON
08:14AM 33.6167 -84.4667 90° East 150 173 1,300 -840 Descending Atlanta TRACON
08:16AM 33.6333 -84.4167 64° Northeast  Level FlightAware Approximate
08:23AM 33.6367 -84.4279 64° Northeast  Level Estimated